createdAt,value
2018-03-07T00:01:27.734Z,19.05
2018-03-07T00:06:29.665Z,19.20
2018-03-07T00:08:57.711Z,18.55
2018-03-07T00:11:26.812Z,17.20
2018-03-07T00:13:56.097Z,18.42
2018-03-07T00:16:24.898Z,17.95
2018-03-07T00:18:52.641Z,18.17
2018-03-07T00:21:22.131Z,18.50
2018-03-07T00:23:50.424Z,17.58
2018-03-07T00:26:18.104Z,17.48
2018-03-07T00:28:47.842Z,18.25
2018-03-07T00:31:18.769Z,18.30
2018-03-07T00:33:49.297Z,18.98
2018-03-07T00:36:20.262Z,18.42
2018-03-07T00:38:48.688Z,18.10
2018-03-07T00:41:16.923Z,18.65
2018-03-07T00:43:44.864Z,19.00
2018-03-07T00:46:13.399Z,19.95
2018-03-07T00:48:41.798Z,18.92
2018-03-07T00:51:09.208Z,17.92
2018-03-07T00:53:39.271Z,17.60
2018-03-07T00:56:07.752Z,17.55
2018-03-07T00:58:40.882Z,18.20
2018-03-07T01:01:08.312Z,15.93
2018-03-07T01:03:35.712Z,16.10
2018-03-07T01:06:03.048Z,17.10
2018-03-07T01:08:32.954Z,19.15
2018-03-07T01:11:01.342Z,19.15
2018-03-07T01:13:28.856Z,16.83
2018-03-07T01:15:59.736Z,19.87
2018-03-07T01:18:30.595Z,19.33
2018-03-07T01:20:58.609Z,18.70
2018-03-07T01:23:26.233Z,18.35
2018-03-07T01:25:55.159Z,19.90
2018-03-07T01:28:22.671Z,19.55
2018-03-07T01:30:53.954Z,19.42
2018-03-07T01:33:20.658Z,20.73
2018-03-07T01:35:47.189Z,19.60
2018-03-07T01:38:13.754Z,17.87
2018-03-07T01:40:40.365Z,18.25
2018-03-07T01:43:07.265Z,18.10
2018-03-07T01:45:33.865Z,19.83
2018-03-07T01:48:00.810Z,21.52
2018-03-07T01:50:27.348Z,17.10
2018-03-07T01:52:53.912Z,19.35
2018-03-07T01:55:20.478Z,20.60
2018-03-07T01:57:47.042Z,20.90
2018-03-07T02:00:13.643Z,22.10
2018-03-07T02:02:40.213Z,19.75
2018-03-07T02:05:07.113Z,18.27
2018-03-07T02:07:33.674Z,18.17
2018-03-07T02:10:00.242Z,20.17
2018-03-07T02:12:26.769Z,18.12
2018-03-07T02:14:53.366Z,19.17
2018-03-07T02:17:19.938Z,18.62
2018-03-07T02:19:46.464Z,18.50
2018-03-07T02:22:13.021Z,17.73
2018-03-07T02:24:39.581Z,16.83
2018-03-07T02:27:06.118Z,17.62
2018-03-07T02:29:32.681Z,19.25
2018-03-07T02:31:59.248Z,17.25
2018-03-07T02:34:25.778Z,20.67
2018-03-07T02:36:52.353Z,22.23
2018-03-07T02:39:18.926Z,18.75
2018-03-07T02:41:45.831Z,19.55
2018-03-07T02:44:12.406Z,20.15
2018-03-07T02:46:38.976Z,18.00
2018-03-07T02:49:05.866Z,19.90
2018-03-07T02:51:32.421Z,18.37
2018-03-07T02:53:58.988Z,17.00
2018-03-07T02:56:25.538Z,17.62
2018-03-07T02:58:52.137Z,19.48
2018-03-07T03:01:18.702Z,20.02
2018-03-07T03:03:45.231Z,20.73
2018-03-07T03:06:11.801Z,19.58
2018-03-07T03:08:38.374Z,19.95
2018-03-07T03:11:04.908Z,18.50
2018-03-07T03:13:31.494Z,20.17
2018-03-07T03:15:58.062Z,19.45
2018-03-07T03:18:24.962Z,19.80
2018-03-07T03:20:51.529Z,17.62
2018-03-07T03:23:25.053Z,18.17
2018-03-07T03:25:52.498Z,19.20
2018-03-07T03:28:19.066Z,18.65
2018-03-07T03:30:45.598Z,16.65
2018-03-07T03:33:12.158Z,17.20
2018-03-07T03:35:38.721Z,16.25
2018-03-07T03:38:05.625Z,17.00
2018-03-07T03:40:32.193Z,17.25
2018-03-07T03:42:58.767Z,15.57
2018-03-07T03:45:25.669Z,12.70
2018-03-07T03:47:52.234Z,17.40
2018-03-07T03:50:18.797Z,15.82
2018-03-07T03:52:45.329Z,15.27
2018-03-07T03:55:11.893Z,15.52
2018-03-07T03:57:38.534Z,15.98
2018-03-07T04:00:05.133Z,15.82
2018-03-07T04:02:31.710Z,16.58
2018-03-07T04:04:58.265Z,16.25
2018-03-07T04:07:24.798Z,15.82
2018-03-07T04:09:51.370Z,15.30
2018-03-07T04:12:17.937Z,16.15
2018-03-07T04:14:44.469Z,13.93
2018-03-07T04:17:11.065Z,15.15
2018-03-07T04:19:37.667Z,13.70
2018-03-07T04:22:04.197Z,14.80
2018-03-07T04:24:30.769Z,13.40
2018-03-07T04:26:57.337Z,13.68
2018-03-07T04:29:24.240Z,12.02
2018-03-07T04:31:50.814Z,11.55
2018-03-07T04:34:17.385Z,14.02
2018-03-07T04:36:44.285Z,13.35
2018-03-07T04:39:10.849Z,14.07
2018-03-07T04:41:37.458Z,13.13
2018-03-07T04:44:03.997Z,13.57
2018-03-07T04:46:30.558Z,13.52
2018-03-07T04:48:57.108Z,14.98
2018-03-07T04:51:23.642Z,14.40
2018-03-07T04:53:50.210Z,13.57
2018-03-07T04:56:16.773Z,14.38
2018-03-07T04:58:43.385Z,14.15
2018-03-07T05:01:09.962Z,12.82
2018-03-07T05:03:36.526Z,14.23
2018-03-07T05:06:03.058Z,14.95
2018-03-07T05:08:29.609Z,12.50
2018-03-07T05:10:56.170Z,12.85
2018-03-07T05:13:22.819Z,12.85
2018-03-07T05:15:49.381Z,12.93
2018-03-07T05:18:15.950Z,12.25
2018-03-07T05:20:42.857Z,12.32
2018-03-07T05:23:09.432Z,11.68
2018-03-07T05:25:35.997Z,12.27
2018-03-07T05:28:02.982Z,11.15
2018-03-07T05:30:29.553Z,10.90
2018-03-07T05:32:56.117Z,10.40
2018-03-07T05:35:22.654Z,9.60
2018-03-07T05:37:49.217Z,11.12
2018-03-07T05:40:15.778Z,10.10
2018-03-07T05:42:42.312Z,10.00
2018-03-07T05:45:08.885Z,9.25
2018-03-07T05:47:35.822Z,9.88
2018-03-07T05:50:02.377Z,9.32
2018-03-07T05:52:28.949Z,8.60
2018-03-07T05:54:55.896Z,9.35
2018-03-07T05:57:22.801Z,10.23
2018-03-07T05:59:49.409Z,9.02
2018-03-07T06:02:16.348Z,9.52
2018-03-07T06:04:42.882Z,10.15
2018-03-07T06:07:09.470Z,9.65
2018-03-07T06:09:36.033Z,11.05
2018-03-07T06:12:02.590Z,9.40
2018-03-07T06:14:29.158Z,9.70
2018-03-07T06:16:55.727Z,9.00
2018-03-07T06:19:22.257Z,9.40
2018-03-07T06:21:48.819Z,9.25
2018-03-07T06:24:15.488Z,10.13
2018-03-07T06:26:42.393Z,8.93
2018-03-07T06:29:08.949Z,9.65
2018-03-07T06:31:35.513Z,9.10
2018-03-07T06:34:02.121Z,9.55
2018-03-07T06:36:28.701Z,9.18
2018-03-07T06:38:55.279Z,8.27
2018-03-07T06:41:22.201Z,9.75
2018-03-07T06:43:48.855Z,8.50
2018-03-07T06:46:15.442Z,8.20
2018-03-07T06:48:42.401Z,8.70
2018-03-07T06:51:08.966Z,9.25
2018-03-07T06:53:35.550Z,8.02
2018-03-07T06:56:02.101Z,9.63
2018-03-07T06:58:28.701Z,9.52
2018-03-07T07:00:55.270Z,8.82
2018-03-07T07:03:21.802Z,9.98
2018-03-07T07:05:48.429Z,8.98
2018-03-07T07:08:15.385Z,8.88
2018-03-07T07:10:42.297Z,8.43
2018-03-07T07:13:08.879Z,7.15
2018-03-07T07:15:35.814Z,7.50
2018-03-07T07:18:02.366Z,6.47
2018-03-07T07:20:28.958Z,7.68
2018-03-07T07:22:55.545Z,7.03
2018-03-07T07:25:22.073Z,7.62
2018-03-07T07:27:48.650Z,7.37
2018-03-07T07:30:15.216Z,6.20
2018-03-07T07:32:42.126Z,9.68
2018-03-07T07:35:08.698Z,10.65
2018-03-07T07:37:35.261Z,8.30
2018-03-07T07:40:01.790Z,10.55
2018-03-07T07:42:28.353Z,10.30
2018-03-07T07:44:54.921Z,8.25
2018-03-07T07:47:21.883Z,14.38
2018-03-07T07:49:48.486Z,18.17
2018-03-07T07:52:15.110Z,23.50
2018-03-07T07:54:41.653Z,10.10
2018-03-07T07:57:08.328Z,14.93
2018-03-07T07:59:34.925Z,12.85
2018-03-07T08:02:01.855Z,15.95
2018-03-07T08:04:28.469Z,16.02
2018-03-07T08:06:55.029Z,17.30
2018-03-07T08:09:21.570Z,9.25
2018-03-07T08:11:48.152Z,7.22
2018-03-07T08:14:15.086Z,8.73
2018-03-07T08:16:41.622Z,8.82
2018-03-07T08:19:08.206Z,8.30
2018-03-07T08:21:34.766Z,6.97
2018-03-07T08:24:01.674Z,7.65
2018-03-07T08:26:28.271Z,7.57
2018-03-07T08:28:55.221Z,7.60
2018-03-07T08:31:22.134Z,7.82
2018-03-07T08:33:48.705Z,8.57
2018-03-07T08:36:15.269Z,8.48
2018-03-07T08:38:42.166Z,7.62
2018-03-07T08:41:08.722Z,7.62
2018-03-07T08:43:35.286Z,6.87
2018-03-07T08:46:01.860Z,7.78
2018-03-07T08:48:28.841Z,7.35
2018-03-07T08:50:55.402Z,7.50
2018-03-07T08:53:21.930Z,7.53
2018-03-07T08:55:48.496Z,7.50
2018-03-07T08:58:15.097Z,7.43
2018-03-07T09:00:41.630Z,7.25
2018-03-07T09:03:08.194Z,7.78
2018-03-07T09:05:34.762Z,6.75
2018-03-07T09:08:01.689Z,6.93
2018-03-07T09:10:28.262Z,7.20
2018-03-07T09:12:55.222Z,6.97
2018-03-07T09:15:22.122Z,7.25
2018-03-07T09:17:48.698Z,6.43
2018-03-07T09:20:15.269Z,7.30
2018-03-07T09:22:42.178Z,7.25
2018-03-07T09:25:08.746Z,5.68
2018-03-07T09:27:35.308Z,6.95
2018-03-07T09:30:02.285Z,7.35
2018-03-07T09:32:28.846Z,6.30
2018-03-07T09:34:55.417Z,6.45
2018-03-07T09:37:21.958Z,7.15
2018-03-07T09:39:48.534Z,6.45
2018-03-07T09:42:15.106Z,6.78
2018-03-07T09:44:42.015Z,5.70
2018-03-07T09:47:08.590Z,4.90
2018-03-07T09:49:35.162Z,5.50
2018-03-07T09:52:02.094Z,5.80
2018-03-07T09:54:28.677Z,5.47
2018-03-07T09:56:55.250Z,5.78
2018-03-07T09:59:21.885Z,6.12
2018-03-07T10:01:48.457Z,5.53
2018-03-07T10:04:15.030Z,5.90
2018-03-07T10:06:41.578Z,5.45
2018-03-07T10:09:08.157Z,6.60
2018-03-07T10:11:34.725Z,5.80
2018-03-07T10:14:01.274Z,6.00
2018-03-07T10:16:27.853Z,6.72
2018-03-07T10:18:54.433Z,6.70
2018-03-07T10:21:21.359Z,6.72
2018-03-07T10:23:47.970Z,5.53
2018-03-07T10:26:14.565Z,6.03
2018-03-07T10:28:41.193Z,5.85
2018-03-07T10:31:07.822Z,6.32
2018-03-07T10:33:34.421Z,5.37
2018-03-07T10:36:00.961Z,4.53
2018-03-07T10:38:27.537Z,4.40
2018-03-07T10:40:55.158Z,4.78
2018-03-07T10:43:21.699Z,4.47
2018-03-07T10:45:48.269Z,4.10
2018-03-07T10:48:14.841Z,4.32
2018-03-07T10:50:41.951Z,3.65
2018-03-07T10:53:08.539Z,4.20
2018-03-07T10:55:35.126Z,4.32
2018-03-07T10:58:01.701Z,3.45
2018-03-07T11:00:34.245Z,3.75
2018-03-07T11:03:00.849Z,4.12
2018-03-07T11:05:27.391Z,3.62
2018-03-07T11:07:53.982Z,3.83
2018-03-07T11:10:21.005Z,4.47
2018-03-07T11:12:47.562Z,4.40
2018-03-07T11:15:14.515Z,3.47
2018-03-07T11:17:41.097Z,3.30
2018-03-07T11:20:08.052Z,2.90
2018-03-07T11:22:34.996Z,3.20
2018-03-07T11:25:01.999Z,3.30
2018-03-07T11:27:28.645Z,3.40
2018-03-07T11:29:55.212Z,3.80
2018-03-07T11:32:21.806Z,3.67
2018-03-07T11:34:48.729Z,4.18
2018-03-07T11:37:15.405Z,3.53
2018-03-07T11:39:42.507Z,3.53
2018-03-07T11:42:09.049Z,4.30
2018-03-07T11:44:35.630Z,3.95
2018-03-07T11:47:02.229Z,3.70
2018-03-07T11:49:28.931Z,3.00
2018-03-07T11:51:55.526Z,3.12
2018-03-07T11:54:22.202Z,3.10
2018-03-07T11:56:48.742Z,3.00
2018-03-07T11:59:15.333Z,3.12
2018-03-07T12:01:41.905Z,2.30
2018-03-07T12:04:08.813Z,2.05
2018-03-07T12:06:35.378Z,3.08
2018-03-07T12:09:01.986Z,2.75
2018-03-07T12:11:28.529Z,2.47
2018-03-07T12:13:55.089Z,2.40
2018-03-07T12:16:21.682Z,2.22
2018-03-07T12:18:48.225Z,2.00
2018-03-07T12:21:14.811Z,2.12
2018-03-07T12:23:41.384Z,1.80
2018-03-07T12:26:07.921Z,2.47
2018-03-07T12:28:34.534Z,2.53
2018-03-07T12:31:01.498Z,2.50
2018-03-07T12:33:28.043Z,2.28
2018-03-07T12:35:55.010Z,2.25
2018-03-07T12:38:21.577Z,2.75
2018-03-07T12:40:48.109Z,2.75
2018-03-07T12:43:14.670Z,2.60
2018-03-07T12:45:41.247Z,2.80
2018-03-07T12:48:07.785Z,2.10
2018-03-07T12:50:34.410Z,2.00
2018-03-07T12:53:00.985Z,2.20
2018-03-07T12:55:27.517Z,2.35
2018-03-07T12:57:54.165Z,2.20
2018-03-07T13:00:20.843Z,2.45
2018-03-07T13:02:47.390Z,2.40
2018-03-07T13:05:13.966Z,2.12
2018-03-07T13:07:40.922Z,2.62
2018-03-07T13:10:07.838Z,1.80
2018-03-07T13:12:34.414Z,1.70
2018-03-07T13:15:00.982Z,1.90
2018-03-07T13:17:27.902Z,1.90
2018-03-07T13:19:54.482Z,2.15
2018-03-07T13:22:21.439Z,1.60
2018-03-07T13:24:47.986Z,1.73
2018-03-07T13:27:14.940Z,1.83
2018-03-07T13:29:41.926Z,1.50
2018-03-07T13:32:08.460Z,1.85
2018-03-07T13:34:35.378Z,2.17
2018-03-07T13:37:01.950Z,1.65
2018-03-07T13:39:28.864Z,1.10
2018-03-07T13:41:55.442Z,1.35
2018-03-07T13:44:22.013Z,1.50
2018-03-07T13:46:48.562Z,1.17
2018-03-07T13:49:15.129Z,1.27
2018-03-07T13:51:41.713Z,1.73
2018-03-07T13:54:08.255Z,1.85
2018-03-07T13:56:35.007Z,1.12
2018-03-07T13:59:01.690Z,1.45
2018-03-07T14:01:28.602Z,2.53
2018-03-07T14:03:55.185Z,2.10
2018-03-07T14:06:22.167Z,1.85
2018-03-07T14:08:48.707Z,1.65
2018-03-07T14:11:15.286Z,1.55
2018-03-07T14:13:41.872Z,1.75
2018-03-07T14:16:08.442Z,3.90
2018-03-07T14:18:35.395Z,1.52
2018-03-07T14:21:02.350Z,1.63
2018-03-07T14:23:29.266Z,3.90
2018-03-07T14:25:55.846Z,3.20
2018-03-07T14:28:22.419Z,1.53
2018-03-07T14:30:48.962Z,1.10
2018-03-07T14:33:15.541Z,1.20
2018-03-07T14:35:42.121Z,2.33
2018-03-07T14:38:08.669Z,1.87
2018-03-07T14:40:35.237Z,1.33
2018-03-07T14:43:02.201Z,1.40
2018-03-07T14:45:29.113Z,1.25
2018-03-07T14:47:55.698Z,1.60
2018-03-07T14:50:22.648Z,1.50
2018-03-07T14:53:04.106Z,1.70
2018-03-07T14:55:30.678Z,1.60
2018-03-07T14:57:57.234Z,1.90
2018-03-07T15:00:23.881Z,1.15
2018-03-07T15:02:50.449Z,1.40
2018-03-07T15:05:17.358Z,1.50
2018-03-07T15:07:44.007Z,1.70
2018-03-07T15:10:10.587Z,1.35
2018-03-07T15:12:37.494Z,1.20
2018-03-07T15:15:04.082Z,0.90
2018-03-07T15:17:30.679Z,1.23
2018-03-07T15:19:57.278Z,1.85
2018-03-07T15:22:23.863Z,3.15
2018-03-07T15:24:50.797Z,1.40
2018-03-07T15:27:17.333Z,1.15
2018-03-07T15:29:43.922Z,1.20
2018-03-07T15:32:10.635Z,1.42
2018-03-07T15:34:37.849Z,1.37
2018-03-07T15:37:04.456Z,1.30
2018-03-07T15:39:31.022Z,1.25
2018-03-07T15:41:57.929Z,1.25
2018-03-07T15:44:31.537Z,1.37
2018-03-07T15:46:58.106Z,1.30
2018-03-07T15:49:24.650Z,1.50
2018-03-07T15:51:51.235Z,1.20
2018-03-07T15:54:17.830Z,1.45
2018-03-07T15:56:44.374Z,1.52
2018-03-07T15:59:11.013Z,1.33
2018-03-07T16:01:37.613Z,1.42
2018-03-07T16:04:04.161Z,1.30
2018-03-07T16:06:31.115Z,0.90
2018-03-07T16:08:58.066Z,1.00
2018-03-07T16:11:25.011Z,1.30
2018-03-07T16:13:51.586Z,1.02
2018-03-07T16:16:18.517Z,1.10
2018-03-07T16:18:45.050Z,1.00
2018-03-07T16:21:11.626Z,1.77
2018-03-07T16:23:38.582Z,1.60
2018-03-07T16:26:05.118Z,1.83
2018-03-07T16:28:31.701Z,1.42
2018-03-07T16:30:58.361Z,1.20
2018-03-07T16:33:24.897Z,1.42
2018-03-07T16:35:51.474Z,1.48
2018-03-07T16:38:18.039Z,1.30
2018-03-07T16:40:44.570Z,1.58
2018-03-07T16:43:11.142Z,1.73
2018-03-07T16:45:37.721Z,1.25
2018-03-07T16:48:04.641Z,1.50
2018-03-07T16:50:31.206Z,1.80
2018-03-07T16:52:57.774Z,3.42
2018-03-07T16:55:24.682Z,1.20
2018-03-07T16:57:51.278Z,1.50
2018-03-07T17:00:18.278Z,1.05
2018-03-07T17:02:44.805Z,1.17
2018-03-07T17:05:11.377Z,1.67
2018-03-07T17:07:37.987Z,1.73
2018-03-07T17:10:04.525Z,2.72
2018-03-07T17:12:31.458Z,1.95
2018-03-07T17:14:58.129Z,1.70
2018-03-07T17:17:25.069Z,1.83
2018-03-07T17:19:51.629Z,1.60
2018-03-07T17:22:18.627Z,1.50
2018-03-07T17:24:45.158Z,1.58
2018-03-07T17:27:18.742Z,1.00
2018-03-07T17:29:45.682Z,1.75
2018-03-07T17:32:12.218Z,1.10
2018-03-07T17:34:38.814Z,1.73
2018-03-07T17:37:05.381Z,1.40
2018-03-07T17:39:31.910Z,1.40
2018-03-07T17:41:58.469Z,1.30
2018-03-07T17:44:25.027Z,1.30
2018-03-07T17:46:51.558Z,1.25
2018-03-07T17:49:18.121Z,1.20
2018-03-07T17:51:44.982Z,1.33
2018-03-07T17:54:11.522Z,1.05
2018-03-07T17:56:38.093Z,1.02
2018-03-07T17:59:04.670Z,1.10
2018-03-07T18:01:31.313Z,2.35
2018-03-07T18:03:57.882Z,2.97
2018-03-07T18:06:24.826Z,1.85
2018-03-07T18:08:51.725Z,1.70
2018-03-07T18:11:18.295Z,3.65
2018-03-07T18:13:44.865Z,2.40
2018-03-07T18:16:11.403Z,1.40
2018-03-07T18:18:37.974Z,1.10
2018-03-07T18:21:04.953Z,1.25
2018-03-07T18:23:31.505Z,1.37
2018-03-07T18:25:58.074Z,1.77
2018-03-07T18:28:24.645Z,1.50
2018-03-07T18:30:51.182Z,1.35
2018-03-07T18:33:17.755Z,1.52
2018-03-07T18:35:44.330Z,1.17
2018-03-07T18:38:10.858Z,1.52
2018-03-07T18:40:37.864Z,1.42
2018-03-07T18:43:04.530Z,1.58
2018-03-07T18:45:31.101Z,1.55
2018-03-07T18:47:57.677Z,1.92
2018-03-07T18:50:24.637Z,1.40
2018-03-07T18:52:51.246Z,1.52
2018-03-07T18:55:17.853Z,1.30
2018-03-07T18:57:44.477Z,1.40
2018-03-07T19:00:11.409Z,1.52
2018-03-07T19:02:37.973Z,2.08
2018-03-07T19:05:20.362Z,1.73
2018-03-07T19:07:46.934Z,2.20
2018-03-07T19:10:13.557Z,3.37
2018-03-07T19:12:40.086Z,2.05
2018-03-07T19:15:06.722Z,1.25
2018-03-07T19:17:33.401Z,1.70
2018-03-07T19:19:59.974Z,1.35
2018-03-07T19:22:26.532Z,1.30
2018-03-07T19:24:53.686Z,1.20
2018-03-07T19:27:20.831Z,1.45
2018-03-07T19:29:47.401Z,1.15
2018-03-07T19:32:14.381Z,1.37
2018-03-07T19:34:40.970Z,1.17
2018-03-07T19:37:07.542Z,1.20
2018-03-07T19:39:34.111Z,0.90
2018-03-07T19:42:01.123Z,1.05
2018-03-07T19:44:27.681Z,1.30
2018-03-07T19:46:54.322Z,1.15
2018-03-07T19:49:20.866Z,1.17
2018-03-07T19:51:47.782Z,0.75
2018-03-07T19:54:14.448Z,1.30
2018-03-07T19:56:41.134Z,1.85
2018-03-07T19:59:08.289Z,14.98
2018-03-07T20:01:34.895Z,8.57
2018-03-07T20:04:01.495Z,5.60
2018-03-07T20:06:28.132Z,4.22
2018-03-07T20:09:01.609Z,3.50
2018-03-07T20:11:28.234Z,2.65
2018-03-07T20:13:55.616Z,1.00
2018-03-07T20:16:22.151Z,1.20
2018-03-07T20:18:48.757Z,0.80
2018-03-07T20:21:16.481Z,0.80
2018-03-07T20:23:44.000Z,1.75
2018-03-07T20:26:10.835Z,0.77
2018-03-07T20:28:37.411Z,1.17
2018-03-07T20:31:03.946Z,1.00
2018-03-07T20:33:30.518Z,0.80
2018-03-07T20:35:57.980Z,0.90
2018-03-07T20:38:24.527Z,0.80
2018-03-07T20:40:51.155Z,0.95
2018-03-07T20:43:17.729Z,0.90
2018-03-07T20:45:44.351Z,0.88
2018-03-07T20:48:10.977Z,0.90
2018-03-07T20:50:38.069Z,0.80
2018-03-07T20:53:04.689Z,0.73
2018-03-07T20:55:31.257Z,0.85
2018-03-07T20:57:57.830Z,0.90
2018-03-07T21:00:24.430Z,0.70
2018-03-07T21:02:52.201Z,1.00
2018-03-07T21:05:18.846Z,1.05
2018-03-07T21:07:45.382Z,1.00
2018-03-07T21:10:11.949Z,0.60
2018-03-07T21:12:38.509Z,0.90
2018-03-07T21:15:05.071Z,0.90
2018-03-07T21:17:31.718Z,0.80
2018-03-07T21:19:59.188Z,0.68
2018-03-07T21:22:25.812Z,1.17
2018-03-07T21:24:52.458Z,0.68
2018-03-07T21:27:19.039Z,0.80
2018-03-07T21:29:45.569Z,0.80
2018-03-07T21:32:12.146Z,0.80
2018-03-07T21:34:38.751Z,0.90
2018-03-07T21:37:05.278Z,0.95
2018-03-07T21:39:31.850Z,0.60
2018-03-07T21:41:58.421Z,1.00
2018-03-07T21:44:24.990Z,0.88
2018-03-07T21:46:52.342Z,0.73
2018-03-07T21:49:19.168Z,0.90
2018-03-07T21:51:45.961Z,0.90
2018-03-07T21:54:12.530Z,0.80
2018-03-07T21:56:39.107Z,0.90
2018-03-07T21:59:05.653Z,0.70
2018-03-07T22:01:32.290Z,0.70
2018-03-07T22:03:58.885Z,0.70
2018-03-07T22:06:25.628Z,0.75
2018-03-07T22:08:52.225Z,0.60
2018-03-07T22:11:18.794Z,0.70
2018-03-07T22:13:45.333Z,0.85
2018-03-07T22:16:11.914Z,0.75
2018-03-07T22:18:38.485Z,0.65
2018-03-07T22:21:05.036Z,0.60
2018-03-07T22:23:31.978Z,0.80
2018-03-07T22:25:58.617Z,0.70
2018-03-07T22:28:25.149Z,0.80
2018-03-07T22:30:51.711Z,0.62
2018-03-07T22:33:18.361Z,0.80
2018-03-07T22:35:45.010Z,0.70
2018-03-07T22:38:11.660Z,0.68
2018-03-07T22:40:38.309Z,0.62
2018-03-07T22:43:04.855Z,0.90
2018-03-07T22:45:31.422Z,0.70
2018-03-07T22:47:57.995Z,0.62
2018-03-07T22:50:25.013Z,0.70
2018-03-07T22:52:51.586Z,0.57
2018-03-07T22:55:18.145Z,1.25
2018-03-07T22:57:45.050Z,0.60
2018-03-07T23:00:24.924Z,0.93
2018-03-07T23:02:51.838Z,0.50
2018-03-07T23:05:18.442Z,0.80
2018-03-07T23:07:45.011Z,0.55
2018-03-07T23:10:12.020Z,0.62
2018-03-07T23:12:38.608Z,0.68
2018-03-07T23:15:05.583Z,0.62
2018-03-07T23:17:32.606Z,0.70
2018-03-07T23:19:59.243Z,0.77
2018-03-07T23:22:25.816Z,0.70
2018-03-07T23:24:52.767Z,0.60
2018-03-07T23:27:19.297Z,0.60
2018-03-07T23:29:45.861Z,0.50
2018-03-07T23:32:12.492Z,0.60
2018-03-07T23:34:39.021Z,0.60
2018-03-07T23:37:05.581Z,0.70
2018-03-07T23:39:32.146Z,0.70
2018-03-07T23:41:58.675Z,0.50
2018-03-07T23:44:25.304Z,0.77
2018-03-07T23:46:51.881Z,0.62
2018-03-07T23:49:18.418Z,0.70
2018-03-07T23:51:44.990Z,0.60
2018-03-07T23:54:11.554Z,0.40
2018-03-07T23:56:38.497Z,0.70
2018-03-07T23:59:05.058Z,0.70
